Time;durP1;ratioP1;P1;durP2;ratioP2;P2;SDS_P1;SDS_P2;PMS_P1;PMS_P2;Temp;Humidity;BMP_temperature;BMP_pressure;BME280_temperature;BME280_humidity;BME280_pressure;Samples;Min_cycle;Max_cycle;Signal;HPM_P1;HPM_P2
2021/04/30 00:02:12;;;;;;;39.00;28.80;;;;;;;;;;5053814;28;20222;-74
2021/04/30 00:04:38;;;;;;;43.42;28.48;;;;;;;;;;5054132;28;20278;-74
2021/04/30 00:07:05;;;;;;;44.95;28.70;;;;;;;;;;5054010;28;20358;-74
2021/04/30 00:09:32;;;;;;;42.67;29.65;;;;;;;;;;5053908;28;20230;-74
2021/04/30 00:11:59;;;;;;;49.25;28.65;;;;;;;;;;5053750;28;20292;-75
2021/04/30 00:14:26;;;;;;;41.13;29.40;;;;;;;;;;5053856;28;20195;-75
2021/04/30 00:16:53;;;;;;;41.78;28.23;;;;;;;;;;5053940;28;20305;-76
2021/04/30 00:19:20;;;;;;;41.15;27.85;;;;;;;;;;5054102;28;20282;-75
2021/04/30 00:21:47;;;;;;;41.15;28.60;;;;;;;;;;5053539;28;20212;-75
2021/04/30 00:24:15;;;;;;;37.72;26.33;;;;;;;;;;5053242;28;20242;-75
2021/04/30 00:26:42;;;;;;;36.60;26.15;;;;;;;;;;5053719;28;20195;-75
2021/04/30 00:29:09;;;;;;;37.65;25.85;;;;;;;;;;5053714;28;20289;-76
2021/04/30 00:31:36;;;;;;;36.67;26.92;;;;;;;;;;5054658;28;20231;-75
2021/04/30 00:34:04;;;;;;;31.17;23.83;;;;;;;;;;5054285;28;20196;-76
2021/04/30 00:36:31;;;;;;;32.17;22.05;;;;;;;;;;5054108;28;20274;-76
2021/04/30 00:38:57;;;;;;;35.85;26.58;;;;;;;;;;5053211;28;20222;-75
2021/04/30 00:41:24;;;;;;;31.38;22.83;;;;;;;;;;5052794;28;20323;-75
2021/04/30 00:43:51;;;;;;;35.53;24.30;;;;;;;;;;5053158;28;20195;-76
2021/04/30 00:46:18;;;;;;;34.40;26.38;;;;;;;;;;5054039;28;20196;-75
2021/04/30 00:48:45;;;;;;;30.75;24.83;;;;;;;;;;5053039;28;20739;-74
2021/04/30 00:51:12;;;;;;;29.50;24.17;;;;;;;;;;5053884;28;20191;-73
2021/04/30 00:53:39;;;;;;;36.10;25.45;;;;;;;;;;5053375;28;20261;-73
2021/04/30 00:56:06;;;;;;;38.97;27.23;;;;;;;;;;5053080;28;20282;-72
2021/04/30 00:58:33;;;;;;;41.15;24.83;;;;;;;;;;5052976;28;20592;-74
2021/04/30 01:00:59;;;;;;;34.67;26.70;;;;;;;;;;5053348;28;20305;-73
2021/04/30 01:03:26;;;;;;;35.38;24.90;;;;;;;;;;5053251;28;20281;-73
2021/04/30 01:05:54;;;;;;;35.40;23.75;;;;;;;;;;5053448;28;20286;-73
2021/04/30 01:08:21;;;;;;;34.63;25.58;;;;;;;;;;5053071;28;20195;-74
2021/04/30 01:10:47;;;;;;;31.23;25.20;;;;;;;;;;5053054;28;20298;-73
2021/04/30 01:13:14;;;;;;;33.58;23.40;;;;;;;;;;5053605;28;20294;-75
2021/04/30 01:15:41;;;;;;;36.25;25.80;;;;;;;;;;5053234;28;20660;-75
2021/04/30 01:18:08;;;;;;;32.85;26.00;;;;;;;;;;5053431;28;20195;-75
2021/04/30 01:20:34;;;;;;;34.03;26.13;;;;;;;;;;5053237;28;20260;-75
2021/04/30 01:23:02;;;;;;;39.10;29.30;;;;;;;;;;5053761;28;20211;-75
2021/04/30 01:25:31;;;;;;;36.92;26.65;;;;;;;;;;5052962;28;20633;-75
2021/04/30 01:27:58;;;;;;;39.53;27.52;;;;;;;;;;5053171;28;20225;-75
2021/04/30 01:30:25;;;;;;;37.88;26.33;;;;;;;;;;5053169;28;20333;-75
2021/04/30 01:32:52;;;;;;;48.05;31.77;;;;;;;;;;5053702;28;20237;-75
2021/04/30 01:35:20;;;;;;;44.97;30.80;;;;;;;;;;5053328;28;20287;-75
2021/04/30 01:37:47;;;;;;;54.85;31.77;;;;;;;;;;5053297;28;20240;-75
2021/04/30 01:40:16;;;;;;;49.05;32.15;;;;;;;;;;5052799;28;20291;-74
2021/04/30 01:43:00;;;;;;;39.13;30.92;;;;;;;;;;5052964;28;20233;-74
2021/04/30 01:45:28;;;;;;;45.70;30.75;;;;;;;;;;5053382;28;20290;-75
2021/04/30 01:47:55;;;;;;;51.33;32.78;;;;;;;;;;5056534;28;20298;-75
2021/04/30 01:50:21;;;;;;;45.63;33.17;;;;;;;;;;5056313;28;20313;-75
2021/04/30 01:52:48;;;;;;;47.40;35.10;;;;;;;;;;5056477;28;20282;-75
2021/04/30 01:55:16;;;;;;;47.08;33.58;;;;;;;;;;5056376;28;20246;-74
2021/04/30 01:57:44;;;;;;;47.13;33.50;;;;;;;;;;5056639;28;20287;-74
2021/04/30 02:00:18;;;;;;;49.70;32.88;;;;;;;;;;5056558;28;20332;-74
2021/04/30 02:02:45;;;;;;;44.67;31.17;;;;;;;;;;5056260;28;20301;-74
2021/04/30 02:05:12;;;;;;;48.35;34.10;;;;;;;;;;5056175;28;20201;-74
2021/04/30 02:07:39;;;;;;;48.55;34.28;;;;;;;;;;5056460;28;20659;-74
2021/04/30 02:10:07;;;;;;;45.83;33.47;;;;;;;;;;5057043;28;20233;-75
2021/04/30 02:12:35;;;;;;;57.72;35.70;;;;;;;;;;5056110;28;20285;-75
2021/04/30 02:15:02;;;;;;;64.38;37.88;;;;;;;;;;5056777;28;20246;-74
2021/04/30 02:17:30;;;;;;;55.03;35.10;;;;;;;;;;5056009;28;20657;-74
2021/04/30 02:19:57;;;;;;;49.80;33.95;;;;;;;;;;5056287;28;20269;-75
2021/04/30 02:22:24;;;;;;;48.25;36.80;;;;;;;;;;5055825;28;20764;-75
2021/04/30 02:24:51;;;;;;;48.10;33.80;;;;;;;;;;5056367;28;20664;-76
2021/04/30 02:27:17;;;;;;;49.15;35.90;;;;;;;;;;5055788;28;20252;-76
2021/04/30 02:29:45;;;;;;;50.97;36.72;;;;;;;;;;5056332;28;20230;-76
2021/04/30 02:32:12;;;;;;;58.17;35.30;;;;;;;;;;5055711;28;20753;-76
2021/04/30 02:34:39;;;;;;;59.25;39.65;;;;;;;;;;5056002;28;20191;-77
2021/04/30 02:37:05;;;;;;;58.30;38.25;;;;;;;;;;5055913;28;20238;-75
2021/04/30 02:39:32;;;;;;;58.65;40.45;;;;;;;;;;5055851;28;20231;-75
2021/04/30 02:41:59;;;;;;;60.60;38.53;;;;;;;;;;5055579;28;20232;-75
2021/04/30 02:44:26;;;;;;;65.80;39.40;;;;;;;;;;5055899;28;20281;-75
2021/04/30 02:46:54;;;;;;;60.13;42.10;;;;;;;;;;5055694;28;20239;-74
2021/04/30 02:49:26;;;;;;;66.28;40.78;;;;;;;;;;5055335;28;20230;-75
2021/04/30 02:51:53;;;;;;;64.80;40.90;;;;;;;;;;5055930;28;20637;-75
2021/04/30 02:54:20;;;;;;;64.68;41.70;;;;;;;;;;5055608;28;20200;-75
2021/04/30 02:56:47;;;;;;;59.78;40.58;;;;;;;;;;5055210;28;20199;-75
2021/04/30 02:59:14;;;;;;;58.75;40.85;;;;;;;;;;5054917;28;20277;-75
2021/04/30 03:01:40;;;;;;;65.85;38.80;;;;;;;;;;5055445;28;20306;-75
2021/04/30 03:04:08;;;;;;;61.15;38.97;;;;;;;;;;5055106;28;20220;-75
2021/04/30 03:06:36;;;;;;;62.67;41.15;;;;;;;;;;5055010;28;20634;-76
2021/04/30 03:09:03;;;;;;;61.53;39.92;;;;;;;;;;5055276;28;20677;-76
2021/04/30 03:11:30;;;;;;;61.40;42.38;;;;;;;;;;5055009;28;20241;-76
2021/04/30 03:13:56;;;;;;;59.75;40.22;;;;;;;;;;5054877;28;20197;-75
2021/04/30 03:16:23;;;;;;;69.88;42.47;;;;;;;;;;5055137;28;20199;-75
2021/04/30 03:18:50;;;;;;;60.22;41.20;;;;;;;;;;5055531;28;20278;-75
2021/04/30 03:21:17;;;;;;;56.80;38.88;;;;;;;;;;5054730;28;20732;-76
2021/04/30 03:23:44;;;;;;;64.55;40.38;;;;;;;;;;5055072;28;20227;-75
2021/04/30 03:26:11;;;;;;;63.58;42.67;;;;;;;;;;5054701;28;20735;-76
2021/04/30 03:28:37;;;;;;;59.95;41.70;;;;;;;;;;5054581;28;20232;-76
2021/04/30 03:31:04;;;;;;;62.53;41.70;;;;;;;;;;5055078;28;20200;-75
2021/04/30 03:33:31;;;;;;;61.22;39.55;;;;;;;;;;5055113;28;20286;-76
2021/04/30 03:35:58;;;;;;;56.22;40.70;;;;;;;;;;5055143;28;20238;-76
2021/04/30 03:38:26;;;;;;;61.15;39.50;;;;;;;;;;5055193;28;20681;-76
2021/04/30 03:40:52;;;;;;;65.28;43.15;;;;;;;;;;5054553;28;20273;-76
2021/04/30 03:43:19;;;;;;;62.60;40.85;;;;;;;;;;5054784;28;20231;-78
2021/04/30 03:45:46;;;;;;;62.22;40.25;;;;;;;;;;5054625;28;20560;-77
2021/04/30 03:48:13;;;;;;;53.78;39.08;;;;;;;;;;5054266;28;20296;-77
2021/04/30 03:50:39;;;;;;;56.97;40.13;;;;;;;;;;5054610;28;20258;-77
2021/04/30 03:53:06;;;;;;;59.80;40.88;;;;;;;;;;5054304;28;20661;-77
2021/04/30 03:55:34;;;;;;;69.28;44.25;;;;;;;;;;5054101;28;20257;-77
2021/04/30 03:58:00;;;;;;;66.53;44.65;;;;;;;;;;5054326;28;20285;-77
2021/04/30 04:00:27;;;;;;;72.50;43.45;;;;;;;;;;5053997;28;20199;-76
2021/04/30 04:02:54;;;;;;;71.90;42.17;;;;;;;;;;5053909;28;20681;-72
2021/04/30 04:05:21;;;;;;;74.72;47.03;;;;;;;;;;5053964;28;20293;-76
2021/04/30 04:07:47;;;;;;;84.68;48.92;;;;;;;;;;5054149;28;20227;-76
2021/04/30 04:10:14;;;;;;;68.07;44.72;;;;;;;;;;5053011;28;20235;-76
2021/04/30 04:12:42;;;;;;;66.80;45.05;;;;;;;;;;5054541;28;20332;-76
2021/04/30 04:15:09;;;;;;;70.10;43.33;;;;;;;;;;5053733;28;20199;-77
2021/04/30 04:17:36;;;;;;;87.72;50.47;;;;;;;;;;5054051;28;20381;-75
2021/04/30 04:20:03;;;;;;;68.75;46.92;;;;;;;;;;5054359;28;20197;-77
2021/04/30 04:22:30;;;;;;;77.65;49.28;;;;;;;;;;5053722;28;20735;-77
2021/04/30 04:24:57;;;;;;;68.85;46.75;;;;;;;;;;5053916;28;20231;-74
2021/04/30 04:27:24;;;;;;;72.03;45.00;;;;;;;;;;5053546;28;20692;-74
2021/04/30 04:29:51;;;;;;;70.53;46.65;;;;;;;;;;5054357;28;20543;-74
2021/04/30 04:32:18;;;;;;;70.30;44.95;;;;;;;;;;5058982;28;20702;-73
2021/04/30 04:34:45;;;;;;;58.30;40.90;;;;;;;;;;5069801;28;20202;-74
2021/04/30 04:37:12;;;;;;;60.42;40.78;;;;;;;;;;5073427;28;20241;-74
2021/04/30 04:39:39;;;;;;;68.72;45.75;;;;;;;;;;5073712;28;20285;-74
2021/04/30 04:42:06;;;;;;;65.80;44.15;;;;;;;;;;5073313;28;20233;-73
2021/04/30 04:44:33;;;;;;;69.30;41.70;;;;;;;;;;5073324;28;20230;-73
2021/04/30 04:47:01;;;;;;;61.55;42.38;;;;;;;;;;5073363;28;20285;-73
2021/04/30 04:49:28;;;;;;;70.30;47.05;;;;;;;;;;5073640;28;20222;-74
2021/04/30 04:51:55;;;;;;;65.32;42.22;;;;;;;;;;5073343;28;20208;-74
2021/04/30 04:54:22;;;;;;;70.10;45.70;;;;;;;;;;5073592;28;20365;-69
2021/04/30 04:56:49;;;;;;;67.47;45.10;;;;;;;;;;5073129;28;20251;-70
2021/04/30 04:59:16;;;;;;;66.30;43.45;;;;;;;;;;5073425;28;20195;-69
2021/04/30 05:01:43;;;;;;;69.05;45.70;;;;;;;;;;5064523;28;20587;-70
2021/04/30 05:04:10;;;;;;;65.97;44.08;;;;;;;;;;5053410;28;20618;-70
2021/04/30 05:06:37;;;;;;;73.00;45.75;;;;;;;;;;5053893;28;20292;-70
2021/04/30 05:09:04;;;;;;;68.53;45.00;;;;;;;;;;5053587;28;20300;-70
2021/04/30 05:11:31;;;;;;;69.47;45.35;;;;;;;;;;5052932;28;20241;-70
2021/04/30 05:13:58;;;;;;;71.53;45.10;;;;;;;;;;5053039;28;20234;-70
2021/04/30 05:16:24;;;;;;;61.08;43.05;;;;;;;;;;5053534;28;20195;-70
2021/04/30 05:18:51;;;;;;;58.70;40.92;;;;;;;;;;5053381;28;20191;-70
2021/04/30 05:21:20;;;;;;;62.25;43.03;;;;;;;;;;5055147;28;20298;-70
2021/04/30 05:23:47;;;;;;;56.83;41.35;;;;;;;;;;5055461;28;20283;-69
2021/04/30 05:26:13;;;;;;;58.72;41.55;;;;;;;;;;5055563;28;20214;-70
2021/04/30 05:28:40;;;;;;;60.17;40.00;;;;;;;;;;5057832;28;20348;-69
2021/04/30 05:31:07;;;;;;;57.72;40.55;;;;;;;;;;5057265;28;20203;-72
2021/04/30 05:33:34;;;;;;;53.10;39.25;;;;;;;;;;5056958;28;20238;-64
2021/04/30 05:36:00;;;;;;;53.70;38.95;;;;;;;;;;5056880;28;20281;-69
2021/04/30 05:38:28;;;;;;;59.67;38.17;;;;;;;;;;5056723;28;20290;-68
2021/04/30 05:40:55;;;;;;;52.50;38.45;;;;;;;;;;5056785;28;20720;-69
2021/04/30 05:43:21;;;;;;;56.78;39.20;;;;;;;;;;5057777;28;20579;-68
2021/04/30 05:45:49;;;;;;;60.28;39.08;;;;;;;;;;5056901;28;20559;-68
2021/04/30 05:48:16;;;;;;;55.67;38.95;;;;;;;;;;5056860;28;20222;-68
2021/04/30 05:50:43;;;;;;;60.17;42.97;;;;;;;;;;5036937;28;20231;-69
2021/04/30 05:53:10;;;;;;;61.45;40.28;;;;;;;;;;5036822;28;20235;-68
2021/04/30 05:55:37;;;;;;;52.80;38.42;;;;;;;;;;5037317;28;20278;-68
2021/04/30 05:58:04;;;;;;;53.67;38.75;;;;;;;;;;5036893;28;20538;-68
2021/04/30 06:00:31;;;;;;;57.25;41.08;;;;;;;;;;5036330;28;20342;-68
2021/04/30 06:02:58;;;;;;;53.92;38.95;;;;;;;;;;5037389;28;20305;-68
2021/04/30 06:05:24;;;;;;;59.50;36.60;;;;;;;;;;5036258;28;20199;-68
2021/04/30 06:07:51;;;;;;;52.80;38.65;;;;;;;;;;5036499;28;20201;-68
2021/04/30 06:10:18;;;;;;;60.92;40.40;;;;;;;;;;5036548;28;20669;-68
2021/04/30 06:12:45;;;;;;;55.47;38.28;;;;;;;;;;5036243;28;20713;-68
2021/04/30 06:15:12;;;;;;;62.78;38.90;;;;;;;;;;5036104;28;20202;-68
2021/04/30 06:17:39;;;;;;;55.65;39.47;;;;;;;;;;5036704;28;20283;-68
2021/04/30 06:20:06;;;;;;;55.33;37.95;;;;;;;;;;5036622;28;20234;-69
2021/04/30 06:22:33;;;;;;;56.53;40.65;;;;;;;;;;5036320;28;20248;-68
2021/04/30 06:25:00;;;;;;;63.90;41.20;;;;;;;;;;5036769;28;20287;-69
2021/04/30 06:27:27;;;;;;;52.65;37.13;;;;;;;;;;5036570;28;20195;-69
2021/04/30 06:29:54;;;;;;;57.13;40.13;;;;;;;;;;5035830;28;20196;-67
2021/04/30 06:32:21;;;;;;;55.17;37.03;;;;;;;;;;5035046;28;20286;-68
2021/04/30 06:34:48;;;;;;;54.88;37.10;;;;;;;;;;5036078;28;20232;-67
2021/04/30 06:37:16;;;;;;;49.35;37.05;;;;;;;;;;5036173;28;20204;-67
2021/04/30 06:39:43;;;;;;;56.13;38.67;;;;;;;;;;5035956;28;20742;-68
2021/04/30 06:42:10;;;;;;;55.70;38.22;;;;;;;;;;5035470;28;20224;-68
2021/04/30 06:44:36;;;;;;;53.38;37.88;;;;;;;;;;5035390;28;20233;-68
2021/04/30 06:47:04;;;;;;;49.78;38.28;;;;;;;;;;5035805;28;20673;-67
2021/04/30 06:49:31;;;;;;;50.10;36.97;;;;;;;;;;5045770;28;20255;-68
2021/04/30 06:51:58;;;;;;;54.40;37.70;;;;;;;;;;5055507;28;20207;-68
2021/04/30 06:54:24;;;;;;;50.00;37.75;;;;;;;;;;5055972;28;20191;-68
2021/04/30 06:56:51;;;;;;;50.97;36.72;;;;;;;;;;5055451;28;20193;-67
2021/04/30 06:59:18;;;;;;;47.85;34.95;;;;;;;;;;5055349;28;20198;-68
2021/04/30 07:01:45;;;;;;;47.28;33.95;;;;;;;;;;5055706;28;20641;-68
2021/04/30 07:04:12;;;;;;;48.55;36.25;;;;;;;;;;5056054;28;20224;-67
2021/04/30 07:06:39;;;;;;;51.58;36.42;;;;;;;;;;5055197;28;20278;-68
2021/04/30 07:09:06;;;;;;;57.08;36.85;;;;;;;;;;5055200;28;20223;-67
2021/04/30 07:11:33;;;;;;;48.45;34.03;;;;;;;;;;5054924;28;20697;-67
2021/04/30 07:14:00;;;;;;;44.10;32.50;;;;;;;;;;5055085;28;20196;-68
2021/04/30 07:16:27;;;;;;;41.15;33.30;;;;;;;;;;5054789;28;20206;-67
2021/04/30 07:18:54;;;;;;;45.65;32.97;;;;;;;;;;5055251;28;20197;-68
2021/04/30 07:21:21;;;;;;;44.10;31.33;;;;;;;;;;5054673;28;20214;-68
2021/04/30 07:23:48;;;;;;;44.40;34.15;;;;;;;;;;5054960;28;20270;-68
2021/04/30 07:26:15;;;;;;;37.15;29.50;;;;;;;;;;5054942;28;20311;-68
2021/04/30 07:28:42;;;;;;;44.95;32.30;;;;;;;;;;5054912;28;20231;-67
2021/04/30 07:31:09;;;;;;;43.25;31.52;;;;;;;;;;5055067;28;20227;-68
2021/04/30 07:33:37;;;;;;;41.97;30.58;;;;;;;;;;5055232;28;20194;-67
2021/04/30 07:36:04;;;;;;;48.83;34.28;;;;;;;;;;5054723;28;20255;-67
2021/04/30 07:38:32;;;;;;;43.58;32.80;;;;;;;;;;5054667;28;20680;-67
2021/04/30 07:40:59;;;;;;;41.83;31.67;;;;;;;;;;5054561;28;20566;-67
2021/04/30 07:43:26;;;;;;;49.10;33.05;;;;;;;;;;5054735;28;20255;-67
2021/04/30 07:45:53;;;;;;;48.45;33.90;;;;;;;;;;5054448;28;20253;-67
2021/04/30 07:48:20;;;;;;;38.35;31.23;;;;;;;;;;5054439;28;20201;-67
2021/04/30 07:50:47;;;;;;;38.92;31.15;;;;;;;;;;5054141;28;20182;-67
2021/04/30 07:53:14;;;;;;;41.38;32.50;;;;;;;;;;5054458;28;20282;-67
2021/04/30 07:55:41;;;;;;;43.63;32.47;;;;;;;;;;5054407;28;20228;-67
2021/04/30 07:58:08;;;;;;;37.92;29.38;;;;;;;;;;5054695;28;20506;-67
2021/04/30 08:00:35;;;;;;;35.15;30.20;;;;;;;;;;5054226;28;20564;-67
2021/04/30 08:03:01;;;;;;;39.37;30.27;;;;;;;;;;5054961;28;20640;-67
2021/04/30 08:05:28;;;;;;;33.17;25.85;;;;;;;;;;5054919;28;20473;-68
2021/04/30 08:07:55;;;;;;;41.10;29.63;;;;;;;;;;5053773;28;20308;-69
2021/04/30 08:10:22;;;;;;;36.20;27.90;;;;;;;;;;5053859;28;20205;-69
2021/04/30 08:12:49;;;;;;;34.10;27.58;;;;;;;;;;5053989;28;20232;-68
2021/04/30 08:15:16;;;;;;;32.45;27.42;;;;;;;;;;5053991;28;20302;-68
2021/04/30 08:17:43;;;;;;;32.65;28.60;;;;;;;;;;5053670;28;20667;-68
2021/04/30 08:20:11;;;;;;;33.70;28.42;;;;;;;;;;5053885;28;20200;-68
2021/04/30 08:22:38;;;;;;;30.15;25.63;;;;;;;;;;5053535;28;20691;-68
2021/04/30 08:25:05;;;;;;;32.70;27.37;;;;;;;;;;5053445;28;20251;-68
2021/04/30 08:27:32;;;;;;;37.53;29.45;;;;;;;;;;5053796;28;20473;-67
2021/04/30 08:29:59;;;;;;;34.30;29.50;;;;;;;;;;5053702;28;20293;-67
2021/04/30 08:32:26;;;;;;;32.63;27.23;;;;;;;;;;5053686;28;20945;-67
2021/04/30 08:34:54;;;;;;;39.90;26.63;;;;;;;;;;5053763;28;20204;-67
2021/04/30 08:37:21;;;;;;;33.53;26.77;;;;;;;;;;5053312;28;20520;-67
2021/04/30 08:39:48;;;;;;;34.72;27.75;;;;;;;;;;5053250;28;20230;-67
2021/04/30 08:42:17;;;;;;;33.80;26.17;;;;;;;;;;5053252;28;20323;-67
2021/04/30 08:44:44;;;;;;;33.00;26.10;;;;;;;;;;5053615;28;20496;-67
2021/04/30 08:47:16;;;;;;;32.10;26.08;;;;;;;;;;5053513;28;20851;-67
2021/04/30 08:49:42;;;;;;;34.33;28.53;;;;;;;;;;5053741;28;20583;-68
2021/04/30 08:52:10;;;;;;;37.30;28.23;;;;;;;;;;5053466;28;20535;-67
2021/04/30 08:54:37;;;;;;;35.97;30.05;;;;;;;;;;5053782;28;20201;-68
2021/04/30 08:57:06;;;;;;;36.60;28.23;;;;;;;;;;5053454;28;20197;-68
2021/04/30 08:59:34;;;;;;;35.17;26.70;;;;;;;;;;5053005;28;20209;-68
2021/04/30 09:02:01;;;;;;;33.37;27.80;;;;;;;;;;5053011;28;20229;-68
2021/04/30 09:04:29;;;;;;;36.10;26.38;;;;;;;;;;5053391;28;20442;-67
2021/04/30 09:06:56;;;;;;;37.00;28.27;;;;;;;;;;5053743;28;20545;-67
2021/04/30 09:09:23;;;;;;;36.33;29.20;;;;;;;;;;5053575;28;20875;-67
2021/04/30 09:11:52;;;;;;;32.87;28.23;;;;;;;;;;5052807;28;20504;-68
2021/04/30 09:14:20;;;;;;;39.03;29.90;;;;;;;;;;5052858;28;20448;-67
2021/04/30 09:17:02;;;;;;;35.72;28.40;;;;;;;;;;5053180;28;20432;-67
2021/04/30 09:19:33;;;;;;;35.00;28.75;;;;;;;;;;5051180;28;20235;-68
2021/04/30 09:22:01;;;;;;;37.75;28.85;;;;;;;;;;5052785;28;20304;-67
2021/04/30 09:24:28;;;;;;;43.08;29.80;;;;;;;;;;5053346;28;20212;-68
2021/04/30 09:26:56;;;;;;;35.40;28.55;;;;;;;;;;5052796;28;20209;-68
2021/04/30 09:29:22;;;;;;;33.13;26.25;;;;;;;;;;5053046;28;20211;-68
2021/04/30 09:31:49;;;;;;;35.38;26.35;;;;;;;;;;5053028;28;20198;-68
2021/04/30 09:34:23;;;;;;;30.27;25.42;;;;;;;;;;5053258;28;20201;-69
2021/04/30 09:37:01;;;;;;;33.63;26.48;;;;;;;;;;5053238;28;20186;-68
2021/04/30 09:39:29;;;;;;;34.45;28.15;;;;;;;;;;5052881;28;20239;-69
2021/04/30 09:42:05;;;;;;;34.20;28.90;;;;;;;;;;5053263;28;20220;-70
2021/04/30 09:44:36;;;;;;;38.72;29.65;;;;;;;;;;5052558;28;20203;-68
2021/04/30 09:47:16;;;;;;;35.75;29.35;;;;;;;;;;5052949;28;20205;-68
2021/04/30 09:49:44;;;;;;;37.22;29.88;;;;;;;;;;5052664;28;20236;-68
2021/04/30 09:52:12;;;;;;;34.83;28.08;;;;;;;;;;5052995;28;20197;-68
2021/04/30 09:54:39;;;;;;;35.17;28.35;;;;;;;;;;5052989;28;20208;-68
2021/04/30 09:57:07;;;;;;;38.15;30.70;;;;;;;;;;5052824;28;20192;-68
2021/04/30 09:59:34;;;;;;;38.97;29.83;;;;;;;;;;5052792;28;20284;-69
2021/04/30 10:02:02;;;;;;;41.38;30.70;;;;;;;;;;5052658;28;20219;-68
2021/04/30 10:04:31;;;;;;;38.85;29.50;;;;;;;;;;5052762;28;20633;-68
2021/04/30 10:06:58;;;;;;;37.95;28.52;;;;;;;;;;5053328;28;20247;-68
2021/04/30 10:09:27;;;;;;;43.28;31.15;;;;;;;;;;5055682;28;20204;-68
2021/04/30 10:11:54;;;;;;;35.03;28.23;;;;;;;;;;5056086;28;20199;-69
2021/04/30 10:14:23;;;;;;;43.40;30.83;;;;;;;;;;5055908;28;20252;-68
2021/04/30 10:16:50;;;;;;;44.90;31.40;;;;;;;;;;5056277;28;20208;-68
2021/04/30 10:19:17;;;;;;;42.63;32.92;;;;;;;;;;5056198;28;20653;-68
2021/04/30 10:21:45;;;;;;;50.58;34.00;;;;;;;;;;5055703;28;20239;-68
2021/04/30 10:24:15;;;;;;;45.30;33.65;;;;;;;;;;5056041;28;20200;-68
2021/04/30 10:26:42;;;;;;;47.78;32.88;;;;;;;;;;5056171;28;20191;-68
2021/04/30 10:29:11;;;;;;;43.90;32.35;;;;;;;;;;5057755;28;20200;-68
2021/04/30 10:31:40;;;;;;;43.05;32.20;;;;;;;;;;5057387;28;20253;-67
2021/04/30 10:34:08;;;;;;;40.70;31.75;;;;;;;;;;5057928;28;20632;-69
2021/04/30 10:36:39;;;;;;;40.25;29.38;;;;;;;;;;5056076;28;20231;-69
2021/04/30 10:39:07;;;;;;;37.80;28.42;;;;;;;;;;5056316;28;20215;-68
2021/04/30 10:41:35;;;;;;;41.63;29.48;;;;;;;;;;5055738;28;20271;-68
2021/04/30 10:44:13;;;;;;;40.08;32.03;;;;;;;;;;5055664;28;20277;-69
2021/04/30 10:46:39;;;;;;;39.97;30.17;;;;;;;;;;5055744;28;20208;-69
2021/04/30 10:49:16;;;;;;;37.28;29.67;;;;;;;;;;5055194;28;20741;-68
2021/04/30 10:51:43;;;;;;;43.22;32.40;;;;;;;;;;5055975;28;20231;-68
2021/04/30 10:54:26;;;;;;;37.88;31.27;;;;;;;;;;5055266;28;20682;-68
2021/04/30 10:56:59;;;;;;;40.15;29.55;;;;;;;;;;5055226;28;20731;-68
2021/04/30 10:59:27;;;;;;;37.65;29.45;;;;;;;;;;5055123;28;20208;-68
2021/04/30 11:02:02;;;;;;;38.80;30.85;;;;;;;;;;5055052;28;20231;-69
2021/04/30 11:04:29;;;;;;;35.92;29.35;;;;;;;;;;5055094;28;20185;-68
2021/04/30 11:06:56;;;;;;;41.20;30.30;;;;;;;;;;5055349;28;20195;-69
2021/04/30 11:09:33;;;;;;;87.88;42.15;;;;;;;;;;5055251;28;20205;-68
2021/04/30 11:12:01;;;;;;;50.10;36.08;;;;;;;;;;5055383;28;20204;-68
2021/04/30 11:14:30;;;;;;;39.80;30.60;;;;;;;;;;5054921;28;20656;-68
2021/04/30 11:16:58;;;;;;;37.42;29.48;;;;;;;;;;5055209;28;20576;-68
2021/04/30 11:19:25;;;;;;;40.03;31.15;;;;;;;;;;5054251;28;20250;-68
2021/04/30 11:21:53;;;;;;;46.67;32.85;;;;;;;;;;5054572;28;20307;-68
2021/04/30 11:24:33;;;;;;;43.45;33.00;;;;;;;;;;5054747;28;20543;-68
2021/04/30 11:27:14;;;;;;;42.70;31.60;;;;;;;;;;5054553;28;20304;-69
2021/04/30 11:29:42;;;;;;;52.55;35.40;;;;;;;;;;5042637;28;20286;-68
2021/04/30 11:32:20;;;;;;;49.10;34.80;;;;;;;;;;5054873;28;20196;-68
2021/04/30 11:34:51;;;;;;;52.72;34.30;;;;;;;;;;5054813;28;20556;-69
2021/04/30 11:37:18;;;;;;;45.17;34.53;;;;;;;;;;5054665;28;20721;-68
2021/04/30 11:39:44;;;;;;;47.03;33.88;;;;;;;;;;5054995;28;20205;-68
2021/04/30 11:42:13;;;;;;;50.55;34.60;;;;;;;;;;5054631;28;20221;-68
2021/04/30 11:44:40;;;;;;;48.75;35.42;;;;;;;;;;5054660;28;20196;-68
2021/04/30 11:47:10;;;;;;;45.10;32.75;;;;;;;;;;5054993;28;20234;-68
2021/04/30 11:49:39;;;;;;;50.08;33.25;;;;;;;;;;5054492;28;20235;-68
2021/04/30 11:52:06;;;;;;;52.13;33.75;;;;;;;;;;5054267;28;20694;-69
2021/04/30 11:54:33;;;;;;;52.40;32.03;;;;;;;;;;5054463;28;20208;-68
2021/04/30 11:57:02;;;;;;;44.75;31.48;;;;;;;;;;5054367;28;20197;-68
2021/04/30 11:59:29;;;;;;;45.40;30.45;;;;;;;;;;5054069;28;20201;-68
2021/04/30 12:01:57;;;;;;;48.13;33.85;;;;;;;;;;5054275;28;20243;-69
2021/04/30 12:04:40;;;;;;;47.23;33.70;;;;;;;;;;5053970;28;20230;-68
2021/04/30 12:07:07;;;;;;;50.63;34.77;;;;;;;;;;5053974;28;20907;-68
2021/04/30 12:09:34;;;;;;;48.45;33.55;;;;;;;;;;5053843;28;20973;-68
2021/04/30 12:12:11;;;;;;;51.87;33.80;;;;;;;;;;5053701;28;20248;-68
2021/04/30 12:14:45;;;;;;;48.08;33.30;;;;;;;;;;5054613;28;20514;-68
2021/04/30 12:17:22;;;;;;;47.40;33.80;;;;;;;;;;5054067;28;20276;-68
2021/04/30 12:20:04;;;;;;;52.43;31.07;;;;;;;;;;5053667;28;20432;-67
2021/04/30 12:22:31;;;;;;;42.07;29.93;;;;;;;;;;5053823;28;20505;-69
2021/04/30 12:25:12;;;;;;;47.63;30.70;;;;;;;;;;5053571;28;20969;-68
2021/04/30 12:27:39;;;;;;;42.83;33.33;;;;;;;;;;5053499;28;20484;-68
2021/04/30 12:30:06;;;;;;;48.03;30.23;;;;;;;;;;5053755;28;20850;-69
2021/04/30 12:32:33;;;;;;;42.73;31.73;;;;;;;;;;5054256;28;20515;-69
2021/04/30 12:35:00;;;;;;;38.53;29.10;;;;;;;;;;5053744;28;20547;-69
2021/04/30 12:37:28;;;;;;;40.50;29.30;;;;;;;;;;5053700;28;20586;-68
2021/04/30 12:39:55;;;;;;;33.50;27.67;;;;;;;;;;5054211;28;20476;-68
2021/04/30 12:42:25;;;;;;;34.77;27.57;;;;;;;;;;5053122;28;20484;-69
2021/04/30 12:44:56;;;;;;;40.63;32.17;;;;;;;;;;5052693;28;20435;-75
2021/04/30 12:47:24;;;;;;;45.43;30.37;;;;;;;;;;5053284;28;20244;-77
2021/04/30 12:49:51;;;;;;;39.43;28.90;;;;;;;;;;5053485;28;20473;-75
2021/04/30 12:52:19;;;;;;;45.73;30.40;;;;;;;;;;5053414;28;20501;-75
2021/04/30 12:54:47;;;;;;;42.47;30.93;;;;;;;;;;5053068;28;20499;-74
2021/04/30 12:57:14;;;;;;;38.07;27.23;;;;;;;;;;5053076;28;21025;-78
2021/04/30 12:59:56;;;;;;;38.33;27.00;;;;;;;;;;5053426;28;20440;-79
2021/04/30 13:02:28;;;;;;;41.05;30.40;;;;;;;;;;5053116;28;21090;-77
2021/04/30 13:04:55;;;;;;;42.67;30.50;;;;;;;;;;5052546;28;20205;-78
2021/04/30 13:07:22;;;;;;;44.90;31.45;;;;;;;;;;5062035;28;20489;-77
2021/04/30 13:09:49;;;;;;;49.60;30.60;;;;;;;;;;5073122;28;20236;-77
2021/04/30 13:12:17;;;;;;;50.03;31.40;;;;;;;;;;5073260;28;20239;-76
2021/04/30 13:14:44;;;;;;;50.10;34.30;;;;;;;;;;5073320;28;20438;-77
2021/04/30 13:17:18;;;;;;;52.27;33.03;;;;;;;;;;5072865;28;20200;-77
2021/04/30 13:19:45;;;;;;;57.85;34.25;;;;;;;;;;5073502;28;20447;-75
2021/04/30 13:22:16;;;;;;;48.13;32.50;;;;;;;;;;5073243;28;20252;-77
2021/04/30 13:24:43;;;;;;;49.83;34.93;;;;;;;;;;5073372;28;20435;-76
2021/04/30 13:27:12;;;;;;;46.50;33.33;;;;;;;;;;5073301;28;20527;-77
2021/04/30 13:29:39;;;;;;;57.80;35.53;;;;;;;;;;5072891;28;20460;-77
2021/04/30 13:32:10;;;;;;;49.63;32.73;;;;;;;;;;5072872;28;21039;-77
2021/04/30 13:34:47;;;;;;;52.60;35.20;;;;;;;;;;5072999;28;20448;-71
2021/04/30 13:37:15;;;;;;;56.83;35.80;;;;;;;;;;5073062;28;20428;-76
2021/04/30 13:39:43;;;;;;;59.13;35.27;;;;;;;;;;5073111;28;20527;-77
2021/04/30 13:42:16;;;;;;;62.03;39.20;;;;;;;;;;5074275;28;20508;-76
2021/04/30 13:44:47;;;;;;;60.20;38.47;;;;;;;;;;5076735;28;20476;-77
2021/04/30 13:47:14;;;;;;;59.70;36.07;;;;;;;;;;5076520;28;20497;-77
2021/04/30 13:49:48;;;;;;;63.97;41.73;;;;;;;;;;5077330;28;20870;-77
2021/04/30 13:52:15;;;;;;;70.77;39.73;;;;;;;;;;5076698;28;20451;-76
2021/04/30 13:54:42;;;;;;;59.03;37.17;;;;;;;;;;5076660;28;20472;-77
2021/04/30 13:57:09;;;;;;;64.70;41.67;;;;;;;;;;5076722;28;20478;-76
2021/04/30 13:59:39;;;;;;;69.30;40.97;;;;;;;;;;5076500;28;20522;-75
2021/04/30 14:02:06;;;;;;;51.72;33.25;;;;;;;;;;5076129;28;20515;-76
2021/04/30 14:04:33;;;;;;;69.67;40.10;;;;;;;;;;5076341;28;20198;-78
2021/04/30 14:07:00;;;;;;;66.67;39.53;;;;;;;;;;5076208;28;20443;-75
2021/04/30 14:09:27;;;;;;;77.83;42.33;;;;;;;;;;5076793;28;20527;-76
2021/04/30 14:11:54;;;;;;;67.03;41.83;;;;;;;;;;5076176;28;20484;-77
2021/04/30 14:14:21;;;;;;;64.53;38.23;;;;;;;;;;5076066;28;20436;-77
2021/04/30 14:16:49;;;;;;;63.30;39.37;;;;;;;;;;5076083;28;20492;-77
2021/04/30 14:19:15;;;;;;;65.43;39.17;;;;;;;;;;5075845;28;20476;-77
2021/04/30 14:21:43;;;;;;;68.57;38.20;;;;;;;;;;5075784;28;20281;-77